createdAt,value
2018-11-06T00:00:28.499Z,99.99
2018-11-06T00:01:28.448Z,99.99
2018-11-06T00:02:28.363Z,99.99
2018-11-06T00:03:28.312Z,99.99
2018-11-06T00:04:28.261Z,99.99
2018-11-06T00:05:28.238Z,99.99
2018-11-06T00:06:28.152Z,99.99
2018-11-06T00:07:28.109Z,99.99
2018-11-06T00:08:28.051Z,99.99
2018-11-06T00:09:28.007Z,99.99
2018-11-06T00:10:27.986Z,99.99
2018-11-06T00:11:27.899Z,99.99
2018-11-06T00:12:27.843Z,99.99
2018-11-06T00:13:27.795Z,99.99
2018-11-06T00:14:27.745Z,99.99
2018-11-06T00:15:27.722Z,99.99
2018-11-06T00:16:27.669Z,99.99
2018-11-06T00:17:27.621Z,99.99
2018-11-06T00:18:27.539Z,99.99
2018-11-06T00:19:27.485Z,99.99
2018-11-06T00:20:27.431Z,99.99
2018-11-06T00:21:27.380Z,99.99
2018-11-06T00:22:27.365Z,99.99
2018-11-06T00:23:27.276Z,99.99
2018-11-06T00:24:27.227Z,99.99
2018-11-06T00:25:27.175Z,99.99
2018-11-06T00:26:27.123Z,99.99
2018-11-06T00:27:27.100Z,99.99
2018-11-06T00:28:27.022Z,99.99
2018-11-06T00:29:26.966Z,99.99
2018-11-06T00:30:26.912Z,99.99
2018-11-06T00:31:26.864Z,99.99
2018-11-06T00:32:26.843Z,99.99
2018-11-06T00:33:26.794Z,99.99
2018-11-06T00:34:26.712Z,99.99
2018-11-06T00:35:26.659Z,99.99
2018-11-06T00:36:26.611Z,99.99
2018-11-06T00:37:26.563Z,99.99
2018-11-06T00:38:26.537Z,99.99
2018-11-06T00:39:26.451Z,99.99
2018-11-06T00:40:26.397Z,99.99
2018-11-06T00:41:26.346Z,99.99
2018-11-06T00:42:26.334Z,99.99
2018-11-06T00:43:26.246Z,99.99
2018-11-06T00:44:26.200Z,99.99
2018-11-06T00:45:26.141Z,99.99
2018-11-06T00:46:26.089Z,99.99
2018-11-06T00:47:26.079Z,99.99
2018-11-06T00:48:25.983Z,99.99
2018-11-06T00:49:25.937Z,99.99
2018-11-06T00:50:25.885Z,99.99
2018-11-06T00:51:25.834Z,99.99
2018-11-06T00:52:25.803Z,99.99
2018-11-06T00:53:25.735Z,99.99
2018-11-06T00:54:25.674Z,99.99
2018-11-06T00:55:25.653Z,97.36
2018-11-06T00:56:25.576Z,97.70
2018-11-06T00:57:25.520Z,94.27
2018-11-06T00:58:25.508Z,93.51
2018-11-06T00:59:25.417Z,95.51
2018-11-06T01:00:25.363Z,95.41
2018-11-06T01:01:25.349Z,98.27
2018-11-06T01:02:25.261Z,99.51
2018-11-06T01:03:25.209Z,92.27
2018-11-06T01:04:25.157Z,92.27
2018-11-06T01:05:25.140Z,89.70
2018-11-06T01:06:25.075Z,86.46
2018-11-06T01:07:25.002Z,90.08
2018-11-06T01:08:24.987Z,90.27
2018-11-06T01:09:24.901Z,89.98
2018-11-06T01:10:24.846Z,92.46
2018-11-06T01:11:24.793Z,90.94
2018-11-06T01:12:24.775Z,83.13
2018-11-06T01:13:24.689Z,85.94
2018-11-06T01:14:24.637Z,83.94
2018-11-06T01:15:24.618Z,92.60
2018-11-06T01:16:24.537Z,92.32
2018-11-06T01:17:24.485Z,89.08
2018-11-06T01:18:24.433Z,86.99
2018-11-06T01:19:24.376Z,88.32
2018-11-06T01:20:24.356Z,87.75
2018-11-06T01:21:24.341Z,88.23
2018-11-06T01:22:24.230Z,88.51
2018-11-06T01:23:24.170Z,88.79
2018-11-06T01:24:24.148Z,90.99
2018-11-06T01:25:24.065Z,88.60
2018-11-06T01:26:24.016Z,87.75
2018-11-06T01:27:23.993Z,86.42
2018-11-06T01:28:23.917Z,83.75
2018-11-06T01:29:23.855Z,85.37
2018-11-06T01:30:23.802Z,82.80
2018-11-06T01:31:23.789Z,77.66
2018-11-06T01:32:23.702Z,71.09
2018-11-06T01:33:23.646Z,68.77
2018-11-06T01:34:23.593Z,68.96
2018-11-06T01:35:23.539Z,59.55
2018-11-06T01:36:23.530Z,53.46
2018-11-06T01:37:23.445Z,51.78
2018-11-06T01:38:23.427Z,51.87
2018-11-06T01:39:23.333Z,57.58
2018-11-06T01:40:23.278Z,59.67
2018-11-06T01:41:23.228Z,58.81
2018-11-06T01:42:23.182Z,59.96
2018-11-06T01:43:23.159Z,54.44
2018-11-06T01:44:23.070Z,55.96
2018-11-06T01:45:23.018Z,61.61
2018-11-06T01:46:22.962Z,64.75
2018-11-06T01:47:22.917Z,69.79
2018-11-06T01:48:22.897Z,77.42
2018-11-06T01:49:22.807Z,81.89
2018-11-06T01:50:22.784Z,79.85
2018-11-06T01:51:22.701Z,69.85
2018-11-06T01:52:22.646Z,71.00
2018-11-06T01:53:22.594Z,59.10
2018-11-06T01:54:22.574Z,63.86
2018-11-06T01:55:22.522Z,66.33
2018-11-06T01:56:22.476Z,66.24
2018-11-06T01:57:22.383Z,67.95
2018-11-06T01:58:22.337Z,60.82
2018-11-06T01:59:22.280Z,64.81
2018-11-06T02:00:22.235Z,65.10
2018-11-06T02:01:22.236Z,62.53
2018-11-06T02:02:22.123Z,69.10
2018-11-06T02:03:22.069Z,68.43
2018-11-06T02:04:22.050Z,64.62
2018-11-06T02:05:21.995Z,65.48
2018-11-06T02:06:21.913Z,64.15
2018-11-06T02:07:21.859Z,62.53
2018-11-06T02:08:21.811Z,64.72
2018-11-06T02:09:21.752Z,69.19
2018-11-06T02:10:21.733Z,70.33
2018-11-06T02:11:21.652Z,65.95
2018-11-06T02:12:21.630Z,66.81
2018-11-06T02:13:21.543Z,62.72
2018-11-06T02:14:21.489Z,51.10
2018-11-06T02:15:21.438Z,53.77
2018-11-06T02:16:21.411Z,53.77
2018-11-06T02:17:21.332Z,54.44
2018-11-06T02:18:21.279Z,54.35
2018-11-06T02:19:21.227Z,60.82
2018-11-06T02:20:21.216Z,61.67
2018-11-06T02:21:21.128Z,60.44
2018-11-06T02:22:21.068Z,55.17
2018-11-06T02:23:21.014Z,53.36
2018-11-06T02:24:20.963Z,49.37
2018-11-06T02:25:20.947Z,50.70
2018-11-06T02:26:20.895Z,52.51
2018-11-06T02:27:20.806Z,51.37
2018-11-06T02:28:20.754Z,49.56
2018-11-06T02:29:20.706Z,50.51
2018-11-06T02:30:20.647Z,51.18
2018-11-06T02:31:20.626Z,52.32
2018-11-06T02:32:20.632Z,48.71
2018-11-06T02:33:20.494Z,50.32
2018-11-06T02:34:20.437Z,53.27
2018-11-06T02:35:20.383Z,52.89
2018-11-06T02:36:20.332Z,55.08
2018-11-06T02:37:20.311Z,49.37
2018-11-06T02:38:20.239Z,38.14
2018-11-06T02:39:20.172Z,35.29
2018-11-06T02:40:20.122Z,39.95
2018-11-06T02:41:20.065Z,40.81
2018-11-06T02:42:20.046Z,41.09
2018-11-06T02:43:19.988Z,42.24
2018-11-06T02:44:19.905Z,43.66
2018-11-06T02:45:19.971Z,40.14
2018-11-06T02:46:19.799Z,38.81
2018-11-06T02:47:19.743Z,32.82
2018-11-06T02:48:19.702Z,34.24
2018-11-06T02:49:19.644Z,37.76
2018-11-06T02:50:19.626Z,35.19
2018-11-06T02:51:19.541Z,35.19
2018-11-06T02:52:19.479Z,36.24
2018-11-06T02:53:19.428Z,38.14
2018-11-06T02:54:19.379Z,41.00
2018-11-06T02:55:19.360Z,39.76
2018-11-06T02:56:19.269Z,42.71
2018-11-06T02:57:19.217Z,37.67
2018-11-06T02:58:19.160Z,34.44
2018-11-06T02:59:19.109Z,37.76
2018-11-06T03:00:19.089Z,37.00
2018-11-06T03:01:19.003Z,36.81
2018-11-06T03:02:18.985Z,39.28
2018-11-06T03:03:18.895Z,40.71
2018-11-06T03:04:18.841Z,35.19
2018-11-06T03:05:18.789Z,36.91
2018-11-06T03:06:18.771Z,38.71
2018-11-06T03:07:18.681Z,41.38
2018-11-06T03:08:18.629Z,37.19
2018-11-06T03:09:18.589Z,34.53
2018-11-06T03:10:18.589Z,28.72
2018-11-06T03:11:18.504Z,34.63
2018-11-06T03:12:18.448Z,31.20
2018-11-06T03:13:18.359Z,33.77
2018-11-06T03:14:18.307Z,31.58
2018-11-06T03:15:18.260Z,29.30
2018-11-06T03:16:18.237Z,29.98
2018-11-06T03:17:18.184Z,31.40
2018-11-06T03:18:18.114Z,31.31
2018-11-06T03:19:18.041Z,35.21
2018-11-06T03:20:17.989Z,37.78
2018-11-06T03:21:17.939Z,37.21
2018-11-06T03:22:17.912Z,42.16
2018-11-06T03:23:17.832Z,42.92
2018-11-06T03:24:17.783Z,47.87
2018-11-06T03:25:17.719Z,49.30
2018-11-06T03:26:17.666Z,49.96
2018-11-06T03:27:17.648Z,49.40
2018-11-06T03:28:17.562Z,47.37
2018-11-06T03:29:17.512Z,46.23
2018-11-06T03:30:17.458Z,45.00
2018-11-06T03:31:17.400Z,45.75
2018-11-06T03:32:17.381Z,40.71
2018-11-06T03:33:17.296Z,38.34
2018-11-06T03:34:17.253Z,35.00
2018-11-06T03:35:17.187Z,33.86
2018-11-06T03:36:17.133Z,26.73
2018-11-06T03:37:17.124Z,24.44
2018-11-06T03:38:17.026Z,26.25
2018-11-06T03:39:16.973Z,27.97
2018-11-06T03:40:16.924Z,29.20
2018-11-06T03:41:16.871Z,28.72
2018-11-06T03:42:16.847Z,33.86
2018-11-06T03:43:16.760Z,34.63
2018-11-06T03:44:16.708Z,33.86
2018-11-06T03:45:16.659Z,31.10
2018-11-06T03:46:16.635Z,30.73
2018-11-06T03:47:16.549Z,28.34
2018-11-06T03:48:16.525Z,29.30
2018-11-06T03:49:16.444Z,28.72
2018-11-06T03:50:16.385Z,32.43
2018-11-06T03:51:16.333Z,34.24
2018-11-06T03:52:16.277Z,35.19
2018-11-06T03:53:16.256Z,35.77
2018-11-06T03:54:16.173Z,35.29
2018-11-06T03:55:16.127Z,33.96
2018-11-06T03:56:16.075Z,37.10
2018-11-06T03:57:16.013Z,33.01
2018-11-06T03:58:15.988Z,33.67
2018-11-06T03:59:15.906Z,37.00
2018-11-06T04:00:15.848Z,35.19
2018-11-06T04:01:15.801Z,34.15
2018-11-06T04:02:15.760Z,30.06
2018-11-06T04:03:15.719Z,34.24
2018-11-06T04:04:15.636Z,32.91
2018-11-06T04:05:15.585Z,37.95
2018-11-06T04:06:15.528Z,38.34
2018-11-06T04:07:15.505Z,37.38
2018-11-06T04:08:15.424Z,43.85
2018-11-06T04:09:15.400Z,47.56
2018-11-06T04:10:15.320Z,50.39
2018-11-06T04:11:15.260Z,38.03
2018-11-06T04:12:15.206Z,42.21
2018-11-06T04:13:15.154Z,43.83
2018-11-06T04:14:15.137Z,40.79
2018-11-06T04:15:15.048Z,46.20
2018-11-06T04:16:15.025Z,43.07
2018-11-06T04:17:14.939Z,46.88
2018-11-06T04:18:14.895Z,47.06
2018-11-06T04:19:14.876Z,45.83
2018-11-06T04:20:14.776Z,44.49
2018-11-06T04:21:14.761Z,36.22
2018-11-06T04:22:14.672Z,36.89
2018-11-06T04:23:14.620Z,44.02
2018-11-06T04:24:14.566Z,43.16
2018-11-06T04:25:14.547Z,38.03
2018-11-06T04:26:14.458Z,36.98
2018-11-06T04:27:14.406Z,30.52
2018-11-06T04:28:14.356Z,29.57
2018-11-06T04:29:14.299Z,30.04
2018-11-06T04:30:14.277Z,23.96
2018-11-06T04:31:14.186Z,20.73
2018-11-06T04:32:14.171Z,28.71
2018-11-06T04:33:14.087Z,31.76
2018-11-06T04:34:14.029Z,36.89
2018-11-06T04:35:13.980Z,34.03
2018-11-06T04:36:13.923Z,38.41
2018-11-06T04:37:13.900Z,43.73
2018-11-06T04:38:13.814Z,49.15
2018-11-06T04:39:13.764Z,50.77
2018-11-06T04:40:13.708Z,52.20
2018-11-06T04:41:13.685Z,51.89
2018-11-06T04:42:13.616Z,50.46
2018-11-06T04:43:13.546Z,42.38
2018-11-06T04:44:13.493Z,34.11
2018-11-06T04:45:13.439Z,18.72
2018-11-06T04:46:13.418Z,16.83
2018-11-06T04:47:13.332Z,15.78
2018-11-06T04:48:13.276Z,20.63
2018-11-06T04:49:13.226Z,25.01
2018-11-06T04:50:13.208Z,28.23
2018-11-06T04:51:13.124Z,29.00
2018-11-06T04:52:13.063Z,33.47
2018-11-06T04:53:13.008Z,32.80
2018-11-06T04:54:12.959Z,31.18
2018-11-06T04:55:12.941Z,32.51
2018-11-06T04:56:12.848Z,34.13
2018-11-06T04:57:12.797Z,37.18
2018-11-06T04:58:12.742Z,34.61
2018-11-06T04:59:12.688Z,35.75
2018-11-06T05:00:12.670Z,35.65
2018-11-06T05:01:12.579Z,39.55
2018-11-06T05:02:12.563Z,38.22
2018-11-06T05:03:12.482Z,33.18
2018-11-06T05:04:12.448Z,34.70
2018-11-06T05:05:12.369Z,39.55
2018-11-06T05:06:12.313Z,42.50
2018-11-06T05:07:12.260Z,42.12
2018-11-06T05:08:12.237Z,42.86
2018-11-06T05:09:12.150Z,43.52
2018-11-06T05:10:12.105Z,42.00
2018-11-06T05:11:12.042Z,37.63
2018-11-06T05:12:11.989Z,36.49
2018-11-06T05:13:11.968Z,32.40
2018-11-06T05:14:11.939Z,31.45
2018-11-06T05:15:11.828Z,35.25
2018-11-06T05:16:11.781Z,36.02
2018-11-06T05:17:11.722Z,35.25
2018-11-06T05:18:11.701Z,30.41
2018-11-06T05:19:11.620Z,32.59
2018-11-06T05:20:11.569Z,30.60
2018-11-06T05:21:11.507Z,29.64
2018-11-06T05:22:11.454Z,29.08
2018-11-06T05:23:11.434Z,29.84
2018-11-06T05:24:11.351Z,35.16
2018-11-06T05:25:11.315Z,36.21
2018-11-06T05:26:11.240Z,37.82
2018-11-06T05:27:11.218Z,31.26
2018-11-06T05:28:11.169Z,25.27
2018-11-06T05:29:11.077Z,22.42
2018-11-06T05:30:11.062Z,21.67
2018-11-06T05:31:10.972Z,21.86
2018-11-06T05:32:10.916Z,23.09
2018-11-06T05:33:10.868Z,22.44
2018-11-06T05:34:10.813Z,16.92
2018-11-06T05:35:10.798Z,15.11
2018-11-06T05:36:10.702Z,17.40
2018-11-06T05:37:10.647Z,18.63
2018-11-06T05:38:10.601Z,21.30
2018-11-06T05:39:10.626Z,22.53
2018-11-06T05:40:10.521Z,30.23
2018-11-06T05:41:10.467Z,36.70
2018-11-06T05:42:10.381Z,32.70
2018-11-06T05:43:10.328Z,25.67
2018-11-06T05:44:10.330Z,26.05
2018-11-06T05:45:10.226Z,25.38
2018-11-06T05:46:10.204Z,25.76
2018-11-06T05:47:10.113Z,24.24
2018-11-06T05:48:10.059Z,26.62
2018-11-06T05:49:10.011Z,28.42
2018-11-06T05:50:09.950Z,29.28
2018-11-06T05:51:09.934Z,33.18
2018-11-06T05:52:09.851Z,32.99
2018-11-06T05:53:09.848Z,30.62
2018-11-06T05:54:09.768Z,31.76
2018-11-06T05:55:09.683Z,30.62
2018-11-06T05:56:09.629Z,25.29
2018-11-06T05:57:09.576Z,20.73
2018-11-06T05:58:09.556Z,25.21
2018-11-06T05:59:09.502Z,23.30
2018-11-06T06:00:09.416Z,28.06
2018-11-06T06:01:09.362Z,28.92
2018-11-06T06:02:09.306Z,29.49
2018-11-06T06:03:09.290Z,31.87
2018-11-06T06:04:09.204Z,35.19
2018-11-06T06:05:09.155Z,38.71
2018-11-06T06:06:09.098Z,33.20
2018-11-06T06:07:09.045Z,36.91
2018-11-06T06:08:09.018Z,40.71
2018-11-06T06:09:08.934Z,38.34
2018-11-06T06:10:08.877Z,42.71
2018-11-06T06:11:08.947Z,45.66
2018-11-06T06:12:08.781Z,45.95
2018-11-06T06:13:08.761Z,48.03
2018-11-06T06:14:08.667Z,48.71
2018-11-06T06:15:08.611Z,51.84
2018-11-06T06:16:08.566Z,58.59
2018-11-06T06:17:08.557Z,47.18
2018-11-06T06:18:08.482Z,49.75
2018-11-06T06:19:08.399Z,54.60
2018-11-06T06:20:08.342Z,46.33
2018-11-06T06:21:08.293Z,50.79
2018-11-06T06:22:08.236Z,54.50
2018-11-06T06:23:08.227Z,56.12
2018-11-06T06:24:08.132Z,58.69
2018-11-06T06:25:08.126Z,57.45
2018-11-06T06:26:08.026Z,59.07
2018-11-06T06:27:07.977Z,50.32
2018-11-06T06:28:07.916Z,54.03
2018-11-06T06:29:07.874Z,49.56
2018-11-06T06:30:07.858Z,43.95
2018-11-06T06:31:07.764Z,46.51
2018-11-06T06:32:07.703Z,45.09
2018-11-06T06:33:07.652Z,51.18
2018-11-06T06:34:07.604Z,56.60
2018-11-06T06:35:07.649Z,49.46
2018-11-06T06:36:07.523Z,57.07
2018-11-06T06:37:07.438Z,59.64
2018-11-06T06:38:07.384Z,54.13
2018-11-06T06:39:07.330Z,48.71
2018-11-06T06:40:07.291Z,51.56
2018-11-06T06:41:07.344Z,49.85
2018-11-06T06:42:07.185Z,40.14
2018-11-06T06:43:07.127Z,45.37
2018-11-06T06:44:07.063Z,47.56
2018-11-06T06:45:07.045Z,45.00
2018-11-06T06:46:06.997Z,46.92
2018-11-06T06:47:06.947Z,47.11
2018-11-06T06:48:06.852Z,51.46
2018-11-06T06:49:06.802Z,54.98
2018-11-06T06:50:06.745Z,57.39
2018-11-06T06:51:06.697Z,68.21
2018-11-06T06:52:06.679Z,59.64
2018-11-06T06:53:06.591Z,66.59
2018-11-06T06:54:06.561Z,54.41
2018-11-06T06:55:06.575Z,52.15
2018-11-06T06:56:06.425Z,48.25
2018-11-06T06:57:06.414Z,46.63
2018-11-06T06:58:06.321Z,49.11
2018-11-06T06:59:06.274Z,53.87
2018-11-06T07:00:06.217Z,55.87
2018-11-06T07:01:06.163Z,59.10
2018-11-06T07:02:06.138Z,61.38
2018-11-06T07:03:06.097Z,62.72
2018-11-06T07:04:06.004Z,62.91
2018-11-06T07:05:05.954Z,63.57
2018-11-06T07:06:05.909Z,64.05
2018-11-06T07:07:05.844Z,67.10
2018-11-06T07:08:05.829Z,71.19
2018-11-06T07:09:05.741Z,72.81
2018-11-06T07:10:05.683Z,68.43
2018-11-06T07:11:05.639Z,68.24
2018-11-06T07:12:05.617Z,73.89
2018-11-06T07:13:05.685Z,80.65
2018-11-06T07:14:05.486Z,83.17
2018-11-06T07:15:05.424Z,86.88
2018-11-06T07:16:05.371Z,89.36
2018-11-06T07:17:05.360Z,88.41
2018-11-06T07:18:05.278Z,92.03
2018-11-06T07:19:05.215Z,91.51
2018-11-06T07:20:05.167Z,89.79
2018-11-06T07:21:05.118Z,84.65
2018-11-06T07:22:05.103Z,85.70
2018-11-06T07:23:05.017Z,83.26
2018-11-06T07:24:04.960Z,84.79
2018-11-06T07:25:04.909Z,85.55
2018-11-06T07:26:04.852Z,86.60
2018-11-06T07:27:04.842Z,87.65
2018-11-06T07:28:04.753Z,87.55
2018-11-06T07:29:04.706Z,90.03
2018-11-06T07:30:04.648Z,91.55
2018-11-06T07:31:04.599Z,93.37
2018-11-06T07:32:04.578Z,92.60
2018-11-06T07:33:04.532Z,92.13
2018-11-06T07:34:04.443Z,91.08
2018-11-06T07:35:04.565Z,93.51
2018-11-06T07:36:04.375Z,96.36
2018-11-06T07:37:04.292Z,99.99
2018-11-06T07:38:04.238Z,99.99
2018-11-06T07:39:04.217Z,99.99
2018-11-06T07:40:04.135Z,99.99
2018-11-06T07:41:04.202Z,99.99
2018-11-06T07:42:04.036Z,99.99
2018-11-06T07:43:03.997Z,99.99
2018-11-06T07:44:03.937Z,99.99
2018-11-06T07:45:03.883Z,99.99
2018-11-06T07:46:03.861Z,99.99
2018-11-06T07:47:03.783Z,99.99
2018-11-06T07:48:03.732Z,99.99
2018-11-06T07:49:03.683Z,99.99
2018-11-06T07:50:03.737Z,99.99
2018-11-06T07:51:03.614Z,99.99
2018-11-06T07:52:03.531Z,99.99
2018-11-06T07:53:03.481Z,99.99
2018-11-06T07:54:03.430Z,99.99
2018-11-06T07:55:03.379Z,99.99
2018-11-06T07:56:03.407Z,99.99
2018-11-06T07:57:03.284Z,99.99
2018-11-06T07:58:03.233Z,99.99
2018-11-06T07:59:03.212Z,99.99
2018-11-06T08:00:03.131Z,99.99
2018-11-06T08:01:03.082Z,99.99
2018-11-06T08:02:03.035Z,99.99
2018-11-06T08:03:02.981Z,99.99
2018-11-06T08:04:03.022Z,99.99
2018-11-06T08:05:02.888Z,99.99
2018-11-06T08:06:02.839Z,99.99
2018-11-06T08:07:02.799Z,99.99
2018-11-06T08:08:02.739Z,99.99
2018-11-06T08:09:02.724Z,99.99
2018-11-06T08:10:02.650Z,99.99
2018-11-06T08:11:02.628Z,99.99
2018-11-06T08:12:02.552Z,99.99
2018-11-06T08:13:02.538Z,99.99
2018-11-06T08:14:02.491Z,99.99
2018-11-06T08:15:02.429Z,99.99
2018-11-06T08:16:02.371Z,99.99
2018-11-06T08:17:02.315Z,99.99
2018-11-06T08:18:02.303Z,99.99
2018-11-06T08:19:02.257Z,99.99
2018-11-06T08:20:02.179Z,99.99
2018-11-06T08:21:02.137Z,99.99
2018-11-06T08:22:02.096Z,99.99
2018-11-06T08:23:02.052Z,99.99
2018-11-06T08:24:02.137Z,98.29
2018-11-06T08:25:01.959Z,97.14
2018-11-06T08:26:01.917Z,93.87
2018-11-06T08:27:01.871Z,88.53
2018-11-06T08:28:01.831Z,91.99
2018-11-06T08:29:01.819Z,92.38
2018-11-06T08:30:01.756Z,89.78
2018-11-06T08:31:01.916Z,95.45
2018-11-06T08:32:02.187Z,84.44
2018-11-06T08:33:01.623Z,85.88
2018-11-06T08:34:01.578Z,79.44
2018-11-06T08:35:01.542Z,81.94
2018-11-06T08:36:01.534Z,77.42
2018-11-06T08:37:01.542Z,76.11
2018-11-06T08:38:01.420Z,73.84
2018-11-06T08:39:01.410Z,70.66
2018-11-06T08:40:01.341Z,72.84
2018-11-06T08:41:01.310Z,73.00
2018-11-06T08:42:01.304Z,75.31
2018-11-06T08:43:01.218Z,75.05
2018-11-06T08:44:01.194Z,72.30
2018-11-06T08:45:01.139Z,69.70
2018-11-06T08:46:01.102Z,68.58
2018-11-06T08:47:01.102Z,68.58
2018-11-06T08:48:01.028Z,66.27
2018-11-06T08:49:00.985Z,67.33
2018-11-06T08:50:00.943Z,67.39
2018-11-06T08:51:00.920Z,68.93
2018-11-06T08:52:00.914Z,69.70
2018-11-06T08:53:00.830Z,69.06
2018-11-06T08:54:00.790Z,67.03
2018-11-06T08:55:00.749Z,66.04
2018-11-06T08:56:00.718Z,64.66
2018-11-06T08:57:00.719Z,66.68
2018-11-06T08:58:00.636Z,67.10
2018-11-06T08:59:00.606Z,62.93
2018-11-06T09:00:00.564Z,64.43
2018-11-06T09:01:00.521Z,65.20
2018-11-06T09:02:00.516Z,64.73
2018-11-06T09:03:00.476Z,66.01
2018-11-06T09:04:00.405Z,62.93
2018-11-06T09:05:00.368Z,62.61
2018-11-06T09:06:00.323Z,63.54
2018-11-06T09:07:00.287Z,63.45
2018-11-06T09:08:00.281Z,64.25
2018-11-06T09:09:00.337Z,64.73
2018-11-06T09:10:00.175Z,64.47
2018-11-06T09:11:00.132Z,62.45
2018-11-06T09:12:00.090Z,60.62
2018-11-06T09:13:00.083Z,62.38
2018-11-06T09:14:00.014Z,62.22
2018-11-06T09:14:59.979Z,60.75
2018-11-06T09:15:59.934Z,60.49
2018-11-06T09:16:59.951Z,58.30
2018-11-06T09:17:59.889Z,56.57
2018-11-06T09:18:59.820Z,59.58
2018-11-06T09:19:59.782Z,56.24
2018-11-06T09:20:59.745Z,54.76
2018-11-06T09:21:59.703Z,54.47
2018-11-06T09:22:59.700Z,54.79
2018-11-06T09:23:59.662Z,53.89
2018-11-06T09:24:59.588Z,54.47
2018-11-06T09:25:59.558Z,55.85
2018-11-06T09:26:59.517Z,53.99
2018-11-06T09:27:59.476Z,53.96
2018-11-06T09:28:59.479Z,55.65
2018-11-06T09:29:59.428Z,55.83
2018-11-06T09:30:59.446Z,56.05
2018-11-06T09:31:59.339Z,54.71
2018-11-06T09:32:59.291Z,54.32
2018-11-06T09:33:59.275Z,53.58
2018-11-06T09:34:59.253Z,53.87
2018-11-06T09:35:59.176Z,53.19
2018-11-06T09:36:59.147Z,53.19
2018-11-06T09:37:59.130Z,52.91
2018-11-06T09:38:59.117Z,53.29
2018-11-06T09:39:59.032Z,53.00
2018-11-06T09:40:58.987Z,53.03
2018-11-06T09:41:58.951Z,52.28
2018-11-06T09:42:58.910Z,51.77
2018-11-06T09:43:58.910Z,51.68
2018-11-06T09:44:58.877Z,51.84
2018-11-06T09:45:58.800Z,53.17
2018-11-06T09:46:58.759Z,54.42
2018-11-06T09:47:58.756Z,53.84
2018-11-06T09:48:58.682Z,54.52
2018-11-06T09:49:58.648Z,54.20
2018-11-06T09:50:58.604Z,53.88
2018-11-06T09:51:58.665Z,55.26
2018-11-06T09:52:58.526Z,54.97
2018-11-06T09:53:58.489Z,55.29
2018-11-06T09:54:58.446Z,54.71
2018-11-06T09:55:58.416Z,52.81
2018-11-06T09:56:58.401Z,51.84
2018-11-06T09:57:58.334Z,54.54
2018-11-06T09:58:58.290Z,54.86
2018-11-06T09:59:58.290Z,52.35
2018-11-06T10:00:58.226Z,53.51
2018-11-06T10:01:58.215Z,54.33
2018-11-06T10:02:58.161Z,54.17
2018-11-06T10:03:58.103Z,52.04
2018-11-06T10:04:58.054Z,52.01
2018-11-06T10:05:58.016Z,51.73
2018-11-06T10:06:58.276Z,52.14
2018-11-06T10:07:58.090Z,53.20
2018-11-06T10:08:57.894Z,52.26
2018-11-06T10:09:57.856Z,52.87
2018-11-06T10:10:57.817Z,51.83
2018-11-06T10:11:57.814Z,51.86
2018-11-06T10:12:57.738Z,50.38
2018-11-06T10:13:57.700Z,50.84
2018-11-06T10:14:57.660Z,51.39
2018-11-06T10:15:57.621Z,51.78
2018-11-06T10:16:57.612Z,52.23
2018-11-06T10:17:57.547Z,53.11
2018-11-06T10:18:57.501Z,53.97
2018-11-06T10:19:57.462Z,53.61
2018-11-06T10:20:57.428Z,52.43
2018-11-06T10:21:57.420Z,53.11
2018-11-06T10:22:57.345Z,51.53
2018-11-06T10:23:57.310Z,52.76
2018-11-06T10:24:57.270Z,53.99
2018-11-06T10:25:57.234Z,54.16
2018-11-06T10:26:57.242Z,54.32
2018-11-06T10:27:57.145Z,54.58
2018-11-06T10:28:57.109Z,54.71
2018-11-06T10:29:57.065Z,54.10
2018-11-06T10:30:57.165Z,54.08
2018-11-06T10:31:57.050Z,54.99
2018-11-06T10:32:56.950Z,55.08
2018-11-06T10:33:56.911Z,55.94
2018-11-06T10:34:56.863Z,56.88
2018-11-06T10:35:56.822Z,57.17
2018-11-06T10:36:56.824Z,58.32
2018-11-06T10:37:56.804Z,58.61
2018-11-06T10:38:56.730Z,57.93
2018-11-06T10:39:56.664Z,59.06
2018-11-06T10:40:56.618Z,59.64
2018-11-06T10:41:56.572Z,59.89
2018-11-06T10:42:56.529Z,60.66
2018-11-06T10:43:56.524Z,61.81
2018-11-06T10:44:56.446Z,62.23
2018-11-06T10:45:56.404Z,61.81
2018-11-06T10:46:56.361Z,61.81
2018-11-06T10:47:56.315Z,61.75
2018-11-06T10:48:56.309Z,61.91
2018-11-06T10:49:56.227Z,61.75
2018-11-06T10:50:56.186Z,61.36
2018-11-06T10:51:56.192Z,60.88
2018-11-06T10:52:56.105Z,61.36
2018-11-06T10:53:56.134Z,60.53
2018-11-06T10:54:56.013Z,60.05
2018-11-06T10:55:55.966Z,59.28
2018-11-06T10:56:56.545Z,58.99
2018-11-06T10:57:55.887Z,58.99
2018-11-06T10:58:55.869Z,58.54
2018-11-06T10:59:55.792Z,58.06
2018-11-06T11:00:55.746Z,57.03
2018-11-06T11:01:55.701Z,57.39
2018-11-06T11:02:55.658Z,57.97
2018-11-06T11:03:55.684Z,58.09
2018-11-06T11:04:55.569Z,58.47
2018-11-06T11:05:55.530Z,58.47
2018-11-06T11:06:55.482Z,58.35
2018-11-06T11:07:55.476Z,58.18
2018-11-06T11:08:55.425Z,58.50
2018-11-06T11:09:55.350Z,57.15
2018-11-06T11:10:55.310Z,57.06
2018-11-06T11:11:55.263Z,55.90
2018-11-06T11:12:55.232Z,57.06
2018-11-06T11:13:55.211Z,57.64
2018-11-06T11:14:55.130Z,57.70
2018-11-06T11:15:55.090Z,57.51
2018-11-06T11:16:55.050Z,58.54
2018-11-06T11:17:55.014Z,58.32
2018-11-06T11:18:54.999Z,59.47
2018-11-06T11:19:54.944Z,59.38
2018-11-06T11:20:54.867Z,59.09
2018-11-06T11:21:54.825Z,58.42
2018-11-06T11:22:54.780Z,58.42
2018-11-06T11:23:54.737Z,58.03
2018-11-06T11:24:54.737Z,59.12
2018-11-06T11:25:54.653Z,58.45
2018-11-06T11:26:54.614Z,56.23
2018-11-06T11:27:54.571Z,55.18
2018-11-06T11:28:54.533Z,56.14
2018-11-06T11:29:54.514Z,55.85
2018-11-06T11:30:54.435Z,55.85
2018-11-06T11:31:54.395Z,56.14
2018-11-06T11:32:54.344Z,56.23
2018-11-06T11:33:54.324Z,55.37
2018-11-06T11:34:54.335Z,56.14
2018-11-06T11:35:54.217Z,56.33
2018-11-06T11:36:54.171Z,55.94
2018-11-06T11:37:54.202Z,55.85
2018-11-06T11:38:54.077Z,56.81
2018-11-06T11:39:54.080Z,56.07
2018-11-06T11:40:53.993Z,55.68
2018-11-06T11:41:53.947Z,55.78
2018-11-06T11:42:53.905Z,56.16
2018-11-06T11:43:53.859Z,56.65
2018-11-06T11:44:53.873Z,55.68
2018-11-06T11:45:53.861Z,55.98
2018-11-06T11:46:53.729Z,56.16
2018-11-06T11:47:53.693Z,55.56
2018-11-06T11:48:53.640Z,55.27
2018-11-06T11:49:53.638Z,56.23
2018-11-06T11:50:53.592Z,56.71
2018-11-06T11:51:53.510Z,56.81
2018-11-06T11:52:53.463Z,56.71
2018-11-06T11:53:53.420Z,55.94
2018-11-06T11:54:53.375Z,55.94
2018-11-06T11:55:53.364Z,55.76
2018-11-06T11:56:53.295Z,56.14
2018-11-06T11:57:53.291Z,56.23
2018-11-06T11:58:53.201Z,56.04
2018-11-06T11:59:53.173Z,56.65
2018-11-06T12:00:53.123Z,55.98
2018-11-06T12:01:53.088Z,55.33
2018-11-06T12:02:53.065Z,55.33
2018-11-06T12:03:52.981Z,53.78
2018-11-06T12:04:52.941Z,53.98
2018-11-06T12:05:52.893Z,54.08
2018-11-06T12:06:52.856Z,53.76
2018-11-06T12:07:52.855Z,53.76
2018-11-06T12:08:52.767Z,53.76
2018-11-06T12:09:52.718Z,53.86
2018-11-06T12:10:52.676Z,53.96
2018-11-06T12:11:52.630Z,54.14
2018-11-06T12:12:52.637Z,53.66
2018-11-06T12:13:52.540Z,53.74
2018-11-06T12:14:52.501Z,54.43
2018-11-06T12:15:52.473Z,54.72
2018-11-06T12:16:52.412Z,53.96
2018-11-06T12:17:52.406Z,54.53
2018-11-06T12:18:52.323Z,53.83
2018-11-06T12:19:52.279Z,53.54
2018-11-06T12:20:52.234Z,54.69
2018-11-06T12:21:52.193Z,54.22
2018-11-06T12:22:52.189Z,54.31
2018-11-06T12:23:52.111Z,54.41
2018-11-06T12:24:52.209Z,54.69
2018-11-06T12:25:52.243Z,54.12
2018-11-06T12:26:51.986Z,55.08
2018-11-06T12:27:51.974Z,55.18
2018-11-06T12:28:51.885Z,55.46
2018-11-06T12:29:51.838Z,56.14
2018-11-06T12:30:51.795Z,56.11
2018-11-06T12:31:51.751Z,55.44
2018-11-06T12:32:51.741Z,55.24
2018-11-06T12:33:51.667Z,55.44
2018-11-06T12:34:51.620Z,55.91
2018-11-06T12:35:51.572Z,55.63
2018-11-06T12:36:51.569Z,56.11
2018-11-06T12:37:51.521Z,56.23
2018-11-06T12:38:51.443Z,55.66
2018-11-06T12:39:51.401Z,55.24
2018-11-06T12:40:51.392Z,55.24
2018-11-06T12:41:51.316Z,55.53
2018-11-06T12:42:51.296Z,55.73
2018-11-06T12:43:51.221Z,55.63
2018-11-06T12:44:51.187Z,55.53
2018-11-06T12:45:51.175Z,55.91
2018-11-06T12:46:51.085Z,56.11
2018-11-06T12:47:51.047Z,56.11
2018-11-06T12:48:51.002Z,55.32
2018-11-06T12:49:50.957Z,55.89
2018-11-06T12:50:50.944Z,56.08
2018-11-06T12:51:50.865Z,56.56